Terminal Aerodrome Forecast
Issued by NWS

Home | Current Version | Previous Version | Text Only | Print | Product List | Glossary On
Versions: 1 2 3 4 5 6 7 8 9 10 11 12 13 14 15 16 17 18 19 20 21
000
FTUS45 KABQ 171139
TAFLVS
TAF
KLVS 171139Z 1712/1812 VRB04KT P6SM VCFG SCT002
     FM171600 12009KT P6SM BKN250
     FM180600 36005KT P6SM SKC=

USA.gov is the U.S. government's official web portal to all federal, state and local government web resources and services.